National Weather Service Raw Text Product

Displaying AFOS PIL: TAFOTM Received: 2017-12-07 17:21 UTC


272 
FTUS43 KDMX 071721
TAFOTM
TAF
KOTM 071721Z 0718/0818 31013KT P6SM FEW250
     FM080100 26009KT P6SM FEW250
     FM081400 23007KT P6SM BKN080=